Latest Weather Observations for Tarcoola

IDS60801

Issued at 9:41 am CST Monday 16 September 2019 (issued every 10 minutes, with the page automatically refreshed every 10 minutes)

About weather observations | Map of weather stations | Latest weather observations for SA | Other Formats
Station Details ID: 016098 Name: TARCOOLA AERO Lat: -30.71 Lon: 134.58 Height: 123.0 m
Data from the previous 72 hours. | See also: Recent months at Tarcoola
Date/Time
CST
Temp
°C
App
Temp
°C
Dew
Point
°C
Rel
Hum
%
Delta-T
°C
Wind Press
QNH
hPa
Press
MSL
hPa
Rain since
9am
mm
Dir  Spd
km/h
Gust
km/h
Spd
kts
Gust
kts
16/09:30am 17.7 13.2 11.5 67 3.4 SSW 26 35 14 19 1022.0 1021.8 0.0
16/09:00am 17.1 12.5 11.2 68 3.2 SSW 26 35 14 19 1021.6 1021.4 0.0
16/08:30am 16.8 12.2 11.1 69 3.1 SSW 26 37 14 20 1021.2 1021.0 0.0
16/08:00am 16.0 11.8 11.2 73 2.6 SSW 24 35 13 19 1020.9 1020.7 0.0
16/07:30am 15.5 11.7 11.1 75 2.4 SSW 22 33 12 18 1020.6 1020.4 0.0
16/07:00am 15.3 11.5 11.3 77 2.2 SSW 22 32 12 17 1020.2 1020.1 0.0
16/06:30am 15.2 11.5 11.4 78 2.0 SSW 22 33 12 18 1019.8 1019.7 0.0
16/06:00am 15.3 11.5 11.3 77 2.1 SSW 22 32 12 17 1019.6 1019.5 0.0
16/05:30am 15.5 11.7 11.3 76 2.3 SSW 22 30 12 16 1019.0 1018.8 0.0
16/05:00am 15.7 12.5 11.1 74 2.5 SSW 19 28 10 15 1018.5 1018.3 0.0
16/04:30am 15.9 12.1 11.1 73 2.6 SSW 22 28 12 15 1018.0 1017.8 0.0
16/04:00am 16.0 12.7 11.0 72 2.7 SSW 19 26 10 14 1018.0 1017.8 0.0
16/03:30am 16.2 11.9 10.9 71 2.8 SSW 24 33 13 18 1018.0 1017.8 0.0
16/03:00am 16.5 12.5 10.6 68 3.2 SW 22 30 12 16 1018.1 1017.9 0.0
16/02:30am 16.9 13.3 9.8 63 3.7 SW 19 24 10 13 1018.4 1018.2 0.0
16/02:00am 17.7 13.9 9.1 57 4.5 SW 19 26 10 14 1018.4 1018.2 0.0
16/01:30am 18.5 13.1 8.2 51 5.3 SW 26 35 14 19 1018.0 1017.8 0.0
16/01:00am 19.6 14.7 6.7 43 6.5 SW 22 32 12 17 1017.7 1017.5 0.0
16/12:30am 20.1 16.2 5.4 38 7.3 SW 15 20 8 11 1017.9 1017.7 0.0
16/12:00am 20.9 15.9 4.5 34 8.0 SW 20 26 11 14 1017.7 1017.5 0.0
 
Date/Time
CST
Temp
°C
App
Temp
°C
Dew
Point
°C
Rel
Hum
%
Delta-T
°C
Wind Press
QNH
hPa
Press
MSL
hPa
Rain since
9am
mm
Dir  Spd
km/h
Gust
km/h
Spd
kts
Gust
kts
15/11:30pm 21.3 16.9 2.6 29 8.8 SW 15 19 8 10 1017.3 1017.1 0.0
15/11:00pm 22.1 17.1 1.2 25 9.7 SW 17 24 9 13 1017.1 1016.9 0.0
15/10:30pm 23.3 17.0 -0.9 20 10.8 SW 22 30 12 16 1016.9 1016.7 0.0
15/10:00pm 25.0 17.8 -1.7 17 12.0 SW 26 39 14 21 1016.7 1016.5 0.0
15/09:30pm 26.3 20.3 -3.3 14 13.0 SSW 19 22 10 12 1016.5 1016.3 0.0
15/09:00pm 27.4 20.9 -2.4 14 13.4 SSW 22 30 12 16 1016.2 1016.0 0.0
15/08:30pm 28.3 23.0 -3.8 12 14.2 SW 15 19 8 10 1016.1 1015.9 0.0
15/08:00pm 30.3 24.9 -4.7 10 15.5 SSW 15 24 8 13 1015.6 1015.4 0.0
15/07:30pm 32.4 27.0 -4.5 9 16.7 WNW 15 22 8 12 1015.1 1014.9 0.0
15/07:15pm 33.4 27.1 -3.7 9 17.1 NW 20 65 11 35 1014.7 1014.5 0.0
15/07:00pm 32.8 27.0 -4.2 9 16.9 NNW 17 24 9 13 1014.5 1014.3 0.0
15/06:30pm 33.2 26.7 -5.5 8 17.3 N 20 30 11 16 1014.3 1014.1 0.0
15/06:00pm 32.6 26.7 -5.9 8 17.0 N 17 22 9 12 1014.6 1014.4 0.0
15/05:30pm 33.8 26.6 -5.0 8 17.6 N 24 32 13 17 1014.6 1014.4 0.0
15/05:00pm 34.4 27.7 -4.6 8 17.9 N 22 35 12 19 1014.7 1014.5 0.0
15/04:30pm 35.3 28.4 -5.7 7 18.6 NNW 22 35 12 19 1014.8 1014.6 0.0
15/04:00pm 35.1 26.9 -4.1 8 18.2 NNW 30 41 16 22 1015.2 1015.0 0.0
15/03:30pm 35.2 28.1 -4.0 8 18.2 N 24 39 13 21 1015.4 1015.2 0.0
15/03:00pm 35.4 28.4 -3.8 8 18.3 N 24 35 13 19 1015.8 1015.6 0.0
15/02:30pm 35.1 27.3 -4.1 8 18.2 N 28 39 15 21 1016.3 1016.1 0.0
15/02:00pm 34.4 26.5 -4.6 8 17.9 N 28 43 15 23 1016.8 1016.6 0.0
15/01:30pm 34.1 25.8 -4.8 8 17.7 N 30 41 16 22 1017.3 1017.1 0.0
15/01:00pm 33.1 24.9 -4.0 9 17.0 N 30 41 16 22 1018.0 1017.8 0.0
15/12:30pm 33.4 24.9 -3.7 9 17.1 N 32 41 17 22 1018.6 1018.4 0.0
15/12:02pm 32.2 24.1 -3.2 10 16.3 N 30 48 16 26 1019.1 1018.9 0.0
15/12:00pm 31.8 23.3 -3.5 10 16.1 N 32 48 17 26 1019.1 1018.9 0.0
15/11:57am 31.9 23.8 -3.5 10 16.2 N 30 48 16 26 1019.2 1019.0 0.0
15/11:30am 31.3 23.3 -2.6 11 15.7 N 30 41 16 22 1019.9 1019.8 0.0
15/11:00am 29.4 21.7 -2.9 12 14.7 N 28 41 15 22 1020.3 1020.2 0.0
15/10:30am 27.5 20.6 -2.3 14 13.4 N 24 41 13 22 1021.1 1020.9 0.0
15/10:28am 27.6 20.0 -2.3 14 13.5 NNE 28 46 15 25 1021.1 1020.9 0.0
15/10:00am 27.3 19.3 -2.5 14 13.4 N 30 41 16 22 1021.4 1021.2 0.0
15/09:30am 27.1 19.6 -1.7 15 13.1 N 28 35 15 19 1021.8 1021.6 0.0
15/09:00am 25.3 17.9 -0.7 18 11.9 N 28 43 15 23 1021.7 1021.5 0.0
15/08:30am 23.6 17.0 -0.6 20 10.9 NNE 24 37 13 20 1021.6 1021.4 0.0
15/08:00am 21.0 15.7 -0.9 23 9.6 N 17 24 9 13 1021.9 1021.7 0.0
15/07:30am 20.3 15.0 -0.9 24 9.2 NNE 17 22 9 12 1021.3 1021.1 0.0
15/07:00am 19.7 14.4 -0.9 25 9.0 NNE 17 20 9 11 1021.0 1020.8 0.0
15/06:30am 18.2 13.6 -1.1 27 8.2 NNE 13 17 7 9 1020.9 1020.7 0.0
15/06:00am 19.4 14.9 -0.6 26 8.7 N 13 17 7 9 1020.6 1020.4 0.0
15/05:30am 19.6 15.0 -0.9 25 8.9 NNE 13 19 7 10 1020.1 1020.0 0.0
15/05:00am 18.7 14.5 -1.2 26 8.5 NNE 11 15 6 8 1019.8 1019.7 0.0
15/04:30am 19.7 14.7 -0.9 25 8.9 NNE 15 19 8 10 1019.6 1019.5 0.0
15/04:00am 19.4 15.6 -1.1 25 8.9 NNE 9 13 5 7 1019.6 1019.5 0.0
15/03:30am 20.2 15.6 -1.0 24 9.2 NNE 13 17 7 9 1019.5 1019.3 0.0
15/03:00am 19.9 15.6 -1.8 23 9.3 NNE 11 13 6 7 1019.6 1019.5 0.0
15/02:30am 21.2 16.2 -1.3 22 9.8 NE 15 20 8 11 1019.9 1019.8 0.0
15/02:00am 21.2 15.8 -1.3 22 9.8 NNE 17 22 9 12 1020.2 1020.1 0.0
15/01:30am 21.6 16.5 -1.6 21 10.1 NNE 15 20 8 11 1020.7 1020.5 0.0
15/01:00am 22.3 16.5 -1.7 20 10.5 NNE 19 26 10 14 1020.9 1020.7 0.0
15/12:30am 22.6 17.2 -1.5 20 10.6 NE 17 20 9 11 1021.3 1021.1 0.0
15/12:00am 23.0 17.5 -1.8 19 10.9 NNE 17 24 9 13 1021.4 1021.2 0.0
 
Date/Time
CST
Temp
°C
App
Temp
°C
Dew
Point
°C
Rel
Hum
%
Delta-T
°C
Wind Press
QNH
hPa
Press
MSL
hPa
Rain since
9am
mm
Dir  Spd
km/h
Gust
km/h
Spd
kts
Gust
kts
14/11:30pm 23.5 18.1 -1.4 19 11.0 NE 17 20 9 11 1021.6 1021.4 0.0
14/11:00pm 23.6 18.6 -1.3 19 11.1 NNE 15 20 8 11 1021.7 1021.5 0.0
14/10:30pm 23.7 18.6 -2.0 18 11.3 NE 15 20 8 11 1021.9 1021.7 0.0
14/10:00pm 22.3 17.9 -2.4 19 10.7 NE 11 17 6 9 1022.3 1022.1 0.0
14/09:30pm 21.5 17.7 -3.8 18 10.5 NE 7 9 4 5 1022.2 1022.0 0.0
14/09:00pm 21.6 17.3 -4.5 17 10.7 ENE 9 11 5 6 1022.2 1022.0 0.0
14/08:30pm 22.8 18.9 -4.3 16 11.3 ENE 7 9 4 5 1022.1 1021.9 0.0
14/08:00pm 23.7 19.4 -4.4 15 11.8 E 9 11 5 6 1021.9 1021.7 0.0
14/07:30pm 24.8 22.2 -4.5 14 12.4 CALM 0 9 0 5 1021.8 1021.6 0.0
14/07:00pm 26.9 23.1 -3.8 13 13.5 NNE 7 9 4 5 1021.5 1021.3 0.0
14/06:30pm 28.7 24.5 -3.5 12 14.3 NNE 9 11 5 6 1021.3 1021.1 0.0
14/06:00pm 31.1 26.3 -2.8 11 15.6 NNE 13 19 7 10 1021.2 1021.0 0.0
14/05:30pm 32.0 26.9 -2.1 11 16.0 NNE 15 19 8 10 1021.2 1021.0 0.0
14/05:00pm 32.4 27.5 -3.1 10 16.4 N 13 22 7 12 1021.1 1020.9 0.0
14/04:30pm 32.9 28.1 -2.7 10 16.6 NNE 13 22 7 12 1021.1 1020.9 0.0
14/04:00pm 33.0 28.6 -2.6 10 16.7 NNW 11 19 6 10 1021.2 1021.0 0.0
14/03:30pm 33.3 29.7 -2.4 10 16.8 NNW 7 15 4 8 1021.4 1021.2 0.0
14/03:00pm 32.8 27.6 -2.8 10 16.6 NNE 15 24 8 13 1021.7 1021.5 0.0
14/02:30pm 33.2 28.6 -1.2 11 16.5 NNW 13 28 7 15 1022.2 1022.0 0.0
14/02:00pm 32.2 26.0 -3.2 10 16.3 NNW 20 30 11 16 1022.7 1022.5 0.0
14/01:30pm 32.7 27.3 -1.6 11 16.3 N 17 28 9 15 1023.1 1022.9 0.0
14/01:00pm 31.7 25.8 -2.3 11 15.9 NNE 19 28 10 15 1023.6 1023.4 0.0
14/12:30pm 31.1 25.3 -1.6 12 15.3 NNE 19 30 10 16 1024.0 1023.8 0.0
14/12:00pm 30.9 25.0 -0.7 13 15.0 NE 20 30 11 16 1024.5 1024.3 0.0
14/11:30am 29.9 23.7 -0.5 14 14.4 NNE 22 28 12 15 1025.0 1024.8 0.0
14/11:00am 28.9 23.1 -0.3 15 13.8 NNE 20 30 11 16 1025.5 1025.3 0.0
14/10:30am 27.3 20.8 0.1 17 12.8 NE 24 32 13 17 1025.7 1025.5 0.0
14/10:00am 25.3 18.9 0.8 20 11.5 NNE 24 32 13 17 1026.2 1026.0 0.0
14/09:30am 23.1 17.5 0.9 23 10.2 NE 20 26 11 14 1026.3 1026.1 0.0
14/09:00am 22.2 16.6 1.3 25 9.6 NE 20 26 11 14 1026.4 1026.2 0.0
14/08:30am 20.6 15.6 1.5 28 8.7 NE 17 24 9 13 1026.6 1026.5 0.0
14/08:00am 18.5 14.5 0.6 30 7.9 NE 11 15 6 8 1026.6 1026.5 0.0
14/07:30am 15.4 13.4 0.0 35 6.5 CALM 0 0 0 0 1026.5 1026.3 0.0
14/07:00am 11.8 9.7 -0.7 42 5.1 CALM 0 0 0 0 1026.3 1026.1 0.0
14/06:30am 11.5 9.5 -0.3 44 4.8 CALM 0 0 0 0 1026.0 1025.8 0.0
14/06:00am 13.4 9.8 0.8 42 5.3 NNE 9 11 5 6 1025.8 1025.6 0.0
14/05:30am 13.4 8.9 -0.3 39 5.7 ENE 13 15 7 8 1025.3 1025.1 0.0
14/05:00am 15.4 11.1 0.8 37 6.3 ENE 13 17 7 9 1025.2 1025.0 0.0
14/04:30am 15.7 11.4 1.1 37 6.4 ENE 13 17 7 9 1025.2 1025.0 0.0
14/04:00am 15.3 12.8 1.8 40 6.0 ENE 4 11 2 6 1025.2 1025.0 0.0
14/03:30am 14.5 11.4 0.4 38 6.0 ENE 6 9 3 5 1025.2 1025.0 0.0
14/03:00am 15.0 11.2 -0.7 34 6.5 E 9 11 5 6 1025.4 1025.2 0.0
14/02:30am 17.5 13.5 0.2 31 7.5 E 11 13 6 7 1025.7 1025.5 0.0
14/02:00am 18.7 13.6 0.8 30 8.0 E 17 20 9 11 1025.9 1025.7 0.0
14/01:30am 19.0 14.1 -0.4 27 8.4 E 15 20 8 11 1026.0 1025.8 0.0
14/01:00am 20.3 14.5 -0.3 25 9.1 E 20 26 11 14 1026.2 1026.0 0.0
14/12:30am 21.4 15.2 -0.6 23 9.7 ESE 22 33 12 18 1026.2 1026.0 0.0
14/12:00am 22.3 15.7 -0.4 22 10.1 ESE 24 30 13 16 1026.2 1026.0 0.0
 
Date/Time
CST
Temp
°C
App
Temp
°C
Dew
Point
°C
Rel
Hum
%
Delta-T
°C
Wind Press
QNH
hPa
Press
MSL
hPa
Rain since
9am
mm
Dir  Spd
km/h
Gust
km/h
Spd
kts
Gust
kts
13/11:30pm 22.0 16.3 -0.7 22 10.1 ESE 19 22 10 12 1026.2 1026.0 0.0
13/11:00pm 21.8 16.5 -0.8 22 10.0 SE 17 20 9 11 1026.4 1026.2 0.0
13/10:30pm 19.7 15.5 -0.9 25 8.9 SSW 11 13 6 7 1026.5 1026.3 0.0
13/10:00pm 21.5 17.4 -0.5 23 9.8 ESE 11 13 6 7 1026.3 1026.1 0.0
13/09:30pm 22.6 18.1 -0.2 22 10.3 ESE 13 15 7 8 1026.2 1026.0 0.0
13/09:00pm 22.8 17.8 -1.3 20 10.6 ESE 15 17 8 9 1026.1 1025.9 0.0
13/08:30pm 21.2 17.2 -2.6 20 10.1 ESE 9 13 5 7 1025.9 1025.7 0.0
13/08:00pm 23.2 18.5 -1.7 19 11.0 ESE 13 13 7 7 1025.6 1025.4 0.0
13/07:30pm 23.9 20.0 -1.8 18 11.3 ESE 9 11 5 6 1025.3 1025.1 0.0
13/07:00pm 25.5 21.5 -2.1 16 12.3 ESE 9 13 5 7 1024.9 1024.7 0.0
13/06:30pm 28.0 22.9 -2.0 14 13.6 SE 15 20 8 11 1024.8 1024.6 0.0
13/06:00pm 29.5 24.3 -2.9 12 14.7 SSE 15 20 8 11 1024.4 1024.2 0.0
13/05:30pm 30.3 25.5 -2.2 12 15.0 SE 13 20 7 11 1024.1 1023.9 0.0
13/05:00pm 30.8 26.5 -1.9 12 15.3 ESE 11 19 6 10 1023.9 1023.7 0.0
13/04:30pm 31.0 27.1 -1.7 12 15.3 S 9 19 5 10 1023.9 1023.7 0.0
13/04:00pm 31.0 25.9 -1.7 12 15.4 SSE 15 22 8 12 1023.8 1023.6 0.0
13/03:30pm 31.1 25.7 -1.6 12 15.3 SE 17 28 9 15 1023.8 1023.6 0.0
13/03:00pm 31.0 26.3 -1.7 12 15.3 SE 13 22 7 12 1024.0 1023.8 0.0
13/02:30pm 30.9 26.0 -0.7 13 15.0 SSE 15 22 8 12 1024.1 1023.9 0.0
13/02:00pm 30.6 26.0 -0.9 13 15.0 SSW 13 20 7 11 1024.4 1024.2 0.0
13/01:30pm 31.2 26.7 -0.5 13 15.1 SE 13 20 7 11 1024.9 1024.7 0.0
13/01:00pm 30.1 26.2 -1.3 13 14.7 SW 9 17 5 9 1025.4 1025.2 0.0
13/12:30pm 29.6 26.4 -0.7 14 14.3 N 6 17 3 9 1025.6 1025.4 0.0
13/12:00pm 28.2 24.4 -0.9 15 13.5 ESE 9 19 5 10 1025.9 1025.7 0.0
13/11:30am 28.1 23.6 -0.1 16 13.3 E 13 20 7 11 1026.1 1025.9 0.0
13/11:00am 27.2 23.1 0.1 17 12.8 E 11 20 6 11 1026.2 1026.0 0.0
13/10:30am 25.9 20.7 -0.2 18 12.0 E 17 22 9 12 1026.4 1026.2 0.0
13/10:00am 24.4 19.4 1.3 22 10.9 ESE 17 22 9 12 1026.6 1026.5 0.0

Other formats

Comma delimited format used in spreadsheet applications
http://www.bom.gov.au/fwo/IDS60801/IDS60801.94655.axf

JavaScript Object Notation format (JSON) in row-major order
http://www.bom.gov.au/fwo/IDS60801/IDS60801.94655.json

Data quality

Most of these data are generated automatically and are frequently updated. Quality checks on data are not normally performed. It is possible for incorrect values to appear. Refer to information at About Latest Weather Observations and please check the disclaimer before using these data.